Time;durP1;ratioP1;P1;durP2;ratioP2;P2;SDS_P1;SDS_P2;PMS_P1;PMS_P2;Temp;Humidity;BMP_temperature;BMP_pressure;BME280_temperature;BME280_humidity;BME280_pressure;Samples;Min_cycle;Max_cycle;Signal;HPM_P1;HPM_P2
2021/12/14 00:01:19;;;;;;;149.50;139.63;;;9.60;99.90;;;;;;5024682;28;20190;-80
2021/12/14 00:03:48;;;;;;;149.13;139.20;;;9.60;99.90;;;;;;5023759;28;20571;-79
2021/12/14 00:06:16;;;;;;;146.57;137.10;;;9.60;99.90;;;;;;5025504;28;20195;-79
2021/12/14 00:08:54;;;;;;;144.90;135.60;;;9.60;99.90;;;;;;5007892;28;20676;-79
2021/12/14 00:14:10;;;;;;;149.67;140.27;;;9.60;99.90;;;;;;5026022;28;20278;-79
2021/12/14 00:16:36;;;;;;;147.30;137.90;;;9.60;99.90;;;;;;5024732;28;20171;-79
2021/12/14 00:19:02;;;;;;;150.03;140.23;;;9.60;99.90;;;;;;5009268;28;20225;-79
2021/12/14 00:21:31;;;;;;;150.73;141.00;;;9.60;99.90;;;;;;5008662;28;20187;-79
2021/12/14 00:24:07;;;;;;;150.87;141.03;;;9.60;99.90;;;;;;5008258;28;20668;-79
2021/12/14 00:26:43;;;;;;;151.53;141.33;;;9.50;99.90;;;;;;5024800;28;20187;-80
2021/12/14 00:29:14;;;;;;;148.37;138.67;;;9.50;99.90;;;;;;5024230;28;20210;-79
2021/12/14 00:31:40;;;;;;;148.07;138.27;;;9.50;99.90;;;;;;5024714;28;20238;-79
2021/12/14 00:34:08;;;;;;;148.00;138.30;;;9.50;99.90;;;;;;5025503;28;20210;-78
2021/12/14 00:36:36;;;;;;;147.77;137.67;;;9.50;99.90;;;;;;5025906;28;21242;-79
2021/12/14 00:39:05;;;;;;;148.33;138.63;;;9.50;99.90;;;;;;5025219;28;20674;-79
2021/12/14 00:41:34;;;;;;;144.67;134.93;;;9.50;99.90;;;;;;5025163;28;20660;-78
2021/12/14 00:44:00;;;;;;;151.87;141.30;;;9.50;99.90;;;;;;5024314;28;20237;-80
2021/12/14 00:46:26;;;;;;;149.43;139.53;;;9.50;99.90;;;;;;5024396;28;20195;-79
2021/12/14 00:48:52;;;;;;;146.33;136.07;;;9.50;99.90;;;;;;5030880;28;20245;-80
2021/12/14 00:51:26;;;;;;;149.50;139.47;;;9.50;99.90;;;;;;5027279;28;20234;-78
2021/12/14 00:53:52;;;;;;;141.53;132.07;;;9.50;99.90;;;;;;5044350;28;20261;-79
2021/12/14 00:56:17;;;;;;;145.13;135.43;;;9.50;99.90;;;;;;5014225;28;20277;-78
2021/12/14 00:58:43;;;;;;;147.13;137.07;;;9.50;99.90;;;;;;5030469;28;20621;-78
2021/12/14 01:01:14;;;;;;;147.83;137.83;;;9.60;99.90;;;;;;5031982;28;20663;-79
2021/12/14 01:03:46;;;;;;;144.77;135.03;;;9.50;99.90;;;;;;5048148;28;20750;-79
2021/12/14 01:06:14;;;;;;;149.83;139.60;;;9.50;99.90;;;;;;5048732;28;20200;-79
2021/12/14 01:08:42;;;;;;;143.30;133.60;;;9.50;99.90;;;;;;5029782;28;20214;-79
2021/12/14 01:11:21;;;;;;;148.53;138.20;;;9.50;99.90;;;;;;5048259;28;20174;-79
2021/12/14 01:14:00;;;;;;;149.13;138.57;;;9.50;99.90;;;;;;5047320;28;20182;-79
2021/12/14 01:16:37;;;;;;;152.53;142.43;;;9.50;99.90;;;;;;5030693;28;20188;-79
2021/12/14 01:19:23;;;;;;;151.50;141.20;;;9.50;99.90;;;;;;5048351;28;20205;-79
2021/12/14 01:22:14;;;;;;;149.10;138.70;;;9.50;99.90;;;;;;5016887;28;20667;-78
2021/12/14 01:27:30;;;;;;;154.23;143.87;;;9.50;99.90;;;;;;5043970;28;20202;-80
2021/12/14 01:29:56;;;;;;;153.97;143.70;;;9.50;99.90;;;;;;5048073;28;20241;-78
2021/12/14 01:32:25;;;;;;;155.37;144.63;;;9.50;99.90;;;;;;5029904;28;20292;-78
2021/12/14 01:34:51;;;;;;;155.83;145.43;;;9.50;99.90;;;;;;5029942;28;20341;-79
2021/12/14 01:37:22;;;;;;;153.93;143.73;;;9.50;99.90;;;;;;5046807;28;20261;-78
2021/12/14 01:40:04;;;;;;;155.47;144.87;;;9.40;99.90;;;;;;4999133;28;20750;-77
2021/12/14 01:42:48;;;;;;;153.47;143.03;;;9.40;99.90;;;;;;5045713;28;20174;-79
2021/12/14 01:45:20;;;;;;;153.43;142.80;;;9.50;99.90;;;;;;5024587;28;20217;-79
2021/12/14 01:47:55;;;;;;;153.67;143.27;;;9.50;99.90;;;;;;5047842;28;20250;-79
2021/12/14 01:50:26;;;;;;;153.13;142.73;;;9.50;99.90;;;;;;5029298;28;20323;-78
2021/12/14 01:52:52;;;;;;;150.13;139.70;;;9.40;99.90;;;;;;5030901;28;20194;-77
2021/12/14 01:55:23;;;;;;;151.87;141.60;;;9.40;99.90;;;;;;5022772;28;20671;-79
2021/12/14 01:57:49;;;;;;;151.57;141.17;;;9.40;99.90;;;;;;5046491;28;20202;-79
2021/12/14 02:00:21;;;;;;;152.10;141.87;;;9.40;99.90;;;;;;5029691;28;20617;-78
2021/12/14 02:02:48;;;;;;;156.57;145.50;;;9.50;99.90;;;;;;5049970;28;20236;-78
2021/12/14 02:05:32;;;;;;;153.73;143.37;;;9.50;99.90;;;;;;5030398;28;20206;-79
2021/12/14 02:08:01;;;;;;;156.87;146.07;;;9.40;99.90;;;;;;5046822;28;20214;-77
2021/12/14 02:10:36;;;;;;;154.40;143.97;;;9.40;99.90;;;;;;5031173;28;20321;-79
2021/12/14 02:13:05;;;;;;;153.83;143.37;;;9.40;99.90;;;;;;5023294;28;20200;-79
2021/12/14 02:15:35;;;;;;;152.80;141.93;;;9.40;99.90;;;;;;5049969;28;20192;-78
2021/12/14 02:18:09;;;;;;;151.37;141.10;;;9.40;99.90;;;;;;5048880;28;20190;-78
2021/12/14 02:20:37;;;;;;;152.60;142.33;;;9.40;99.90;;;;;;5030835;28;20638;-78
2021/12/14 02:23:05;;;;;;;154.57;143.80;;;9.30;99.90;;;;;;5049199;28;20273;-78
2021/12/14 02:25:31;;;;;;;154.00;143.20;;;9.20;99.90;;;;;;5031581;28;20198;-78
2021/12/14 02:28:02;;;;;;;152.90;142.17;;;9.20;99.90;;;;;;5047424;28;20222;-79
2021/12/14 02:30:29;;;;;;;153.80;143.50;;;9.20;99.90;;;;;;5031184;28;20774;-78
2021/12/14 02:32:57;;;;;;;152.73;142.20;;;9.20;99.90;;;;;;5030162;28;20317;-78
2021/12/14 02:35:26;;;;;;;152.33;142.03;;;9.20;99.90;;;;;;5014151;28;20690;-79
2021/12/14 02:38:02;;;;;;;153.50;143.00;;;9.20;99.90;;;;;;5049143;28;20215;-77
2021/12/14 02:40:53;;;;;;;153.53;142.70;;;9.20;99.90;;;;;;5022455;28;20209;-78
2021/12/14 02:43:51;;;;;;;153.73;143.00;;;9.20;99.90;;;;;;5049090;28;20187;-79
2021/12/14 02:46:25;;;;;;;154.13;143.27;;;9.20;99.90;;;;;;5048760;28;20193;-79
2021/12/14 02:49:01;;;;;;;152.23;142.03;;;9.20;99.90;;;;;;5030110;28;20313;-78
2021/12/14 02:51:32;;;;;;;154.93;144.57;;;9.20;99.90;;;;;;5046573;28;20263;-79
2021/12/14 02:54:06;;;;;;;154.13;143.67;;;9.20;99.90;;;;;;5047649;28;20189;-77
2021/12/14 02:56:34;;;;;;;150.27;139.83;;;9.30;99.90;;;;;;5030780;28;20186;-78
2021/12/14 02:59:08;;;;;;;152.67;142.37;;;9.20;99.90;;;;;;5044752;28;20221;-79
2021/12/14 03:01:36;;;;;;;152.80;142.53;;;9.20;99.90;;;;;;5027157;28;20217;-78
2021/12/14 03:04:05;;;;;;;149.17;139.07;;;9.20;99.90;;;;;;5046553;28;20202;-79
2021/12/14 03:06:35;;;;;;;150.73;140.83;;;9.20;99.90;;;;;;5011656;28;20740;-79
2021/12/14 03:09:20;;;;;;;148.27;138.60;;;9.20;99.90;;;;;;5029341;28;20906;-79
2021/12/14 03:11:46;;;;;;;150.87;140.97;;;9.20;99.90;;;;;;5047598;28;20185;-78
2021/12/14 03:14:12;;;;;;;150.27;140.53;;;9.20;99.90;;;;;;5046598;28;20191;-79
2021/12/14 03:16:38;;;;;;;152.17;141.87;;;9.20;99.90;;;;;;5047019;28;20197;-78
2021/12/14 03:19:07;;;;;;;151.57;141.63;;;9.10;99.90;;;;;;5021752;28;20278;-79
2021/12/14 03:21:37;;;;;;;150.17;140.23;;;9.10;99.90;;;;;;5046080;28;20194;-78
2021/12/14 03:24:12;;;;;;;148.57;138.93;;;9.10;99.90;;;;;;5046340;28;20575;-79
2021/12/14 03:26:47;;;;;;;151.40;141.63;;;9.10;99.90;;;;;;5028062;28;20205;-78
2021/12/14 03:29:19;;;;;;;146.93;137.03;;;9.10;99.90;;;;;;5027179;28;20206;-79
2021/12/14 03:31:48;;;;;;;150.10;140.30;;;9.10;99.90;;;;;;5043418;28;20210;-77
2021/12/14 03:34:22;;;;;;;147.10;137.47;;;9.10;99.90;;;;;;5027715;28;20605;-79
2021/12/14 03:36:53;;;;;;;145.53;136.00;;;9.00;99.90;;;;;;5028089;28;20182;-79
2021/12/14 03:39:26;;;;;;;146.60;137.23;;;9.00;99.90;;;;;;5047474;28;20727;-77
2021/12/14 03:41:54;;;;;;;146.47;137.17;;;9.00;99.90;;;;;;5046200;28;20655;-79
2021/12/14 03:44:24;;;;;;;145.67;136.17;;;9.00;99.90;;;;;;5047982;28;20231;-79
2021/12/14 03:46:58;;;;;;;146.00;136.53;;;9.00;99.90;;;;;;5029695;28;21345;-78
2021/12/14 03:49:31;;;;;;;140.70;131.80;;;9.00;99.90;;;;;;5026316;28;20805;-78
2021/12/14 03:51:59;;;;;;;143.43;134.07;;;9.00;99.90;;;;;;5026204;28;20213;-78
2021/12/14 03:54:25;;;;;;;144.80;135.63;;;9.00;99.90;;;;;;5010466;28;20179;-79
2021/12/14 03:56:52;;;;;;;143.67;134.67;;;9.00;99.90;;;;;;4992637;28;20205;-78
2021/12/14 03:59:18;;;;;;;141.70;133.00;;;9.00;99.90;;;;;;5025860;28;20282;-78
2021/12/14 04:01:46;;;;;;;144.50;135.47;;;9.00;99.90;;;;;;5010174;28;20293;-78
2021/12/14 04:04:27;;;;;;;144.83;135.77;;;9.00;99.90;;;;;;5043629;28;20545;-78
2021/12/14 04:06:56;;;;;;;137.90;129.17;;;9.00;99.90;;;;;;5025956;28;21070;-78
2021/12/14 04:09:26;;;;;;;138.90;130.20;;;9.00;99.90;;;;;;5026326;28;20646;-78
2021/12/14 04:11:52;;;;;;;139.50;130.50;;;9.10;99.90;;;;;;5027868;28;20211;-76
2021/12/14 04:14:19;;;;;;;140.73;131.93;;;9.10;99.90;;;;;;5008311;28;20205;-78
2021/12/14 04:16:48;;;;;;;138.00;129.43;;;9.10;99.90;;;;;;5024366;28;20292;-78
2021/12/14 04:19:21;;;;;;;138.40;129.47;;;9.10;99.90;;;;;;5024910;28;20238;-77
2021/12/14 04:21:47;;;;;;;136.97;128.37;;;9.10;99.90;;;;;;5028067;28;20186;-78
2021/12/14 04:24:19;;;;;;;137.43;128.87;;;9.10;99.90;;;;;;5025630;28;20596;-77
2021/12/14 04:26:46;;;;;;;139.23;130.73;;;9.10;99.90;;;;;;5010252;28;20675;-77
2021/12/14 04:29:12;;;;;;;135.07;126.57;;;9.10;99.90;;;;;;5024863;28;20209;-76
2021/12/14 04:31:40;;;;;;;136.47;128.13;;;9.10;99.90;;;;;;5030017;28;20241;-78
2021/12/14 04:34:07;;;;;;;135.13;126.73;;;9.00;99.90;;;;;;5030595;28;20260;-78
2021/12/14 04:36:33;;;;;;;133.33;125.07;;;9.00;99.90;;;;;;5029019;28;20190;-79
2021/12/14 04:39:29;;;;;;;133.33;125.07;;;9.10;99.90;;;;;;5013310;28;20613;-77
2021/12/14 04:53:10;;;;;;;130.30;122.20;;;9.00;99.90;;;;;;5030861;28;20206;-78
2021/12/14 04:55:36;;;;;;;128.40;120.50;;;9.00;99.90;;;;;;5031567;28;20265;-78
2021/12/14 04:58:02;;;;;;;129.10;120.90;;;9.00;99.90;;;;;;5027354;28;20202;-78
2021/12/14 05:00:44;;;;;;;127.03;119.20;;;9.00;99.90;;;;;;4995609;28;20195;-79
2021/12/14 05:03:21;;;;;;;128.53;120.60;;;9.00;99.90;;;;;;5045989;28;20190;-76
2021/12/14 05:05:50;;;;;;;125.83;117.43;;;9.00;99.90;;;;;;5028393;28;20195;-77
2021/12/14 05:10:53;;;;;;;123.93;116.30;;;9.00;99.90;;;;;;5032371;28;21004;-78
2021/12/14 05:13:33;;;;;;;126.40;118.20;;;9.00;99.90;;;;;;5029983;28;20193;-77
2021/12/14 05:16:00;;;;;;;126.10;118.23;;;9.00;99.90;;;;;;5030539;28;20218;-76
2021/12/14 05:18:25;;;;;;;125.03;117.40;;;9.00;99.90;;;;;;5030828;28;20726;-77
2021/12/14 05:20:51;;;;;;;125.63;117.50;;;9.00;99.90;;;;;;5032349;28;20264;-78
2021/12/14 05:23:33;;;;;;;125.03;117.20;;;9.00;99.90;;;;;;5042502;28;20190;-79
2021/12/14 05:26:03;;;;;;;123.10;115.63;;;9.10;99.90;;;;;;5030876;28;20710;-79
2021/12/14 05:28:29;;;;;;;123.87;116.17;;;9.00;99.90;;;;;;5031384;28;20864;-78
2021/12/14 05:30:58;;;;;;;122.00;114.37;;;9.00;99.90;;;;;;5029765;28;20190;-77
2021/12/14 05:33:33;;;;;;;122.03;114.23;;;9.10;99.90;;;;;;5013334;28;20210;-78
2021/12/14 05:36:04;;;;;;;124.50;116.77;;;9.10;99.90;;;;;;5027439;28;20187;-77
2021/12/14 05:44:04;;;;;;;122.63;114.83;;;9.00;99.90;;;;;;5030040;28;20206;-78
2021/12/14 05:46:30;;;;;;;122.67;115.17;;;9.00;99.90;;;;;;5022419;28;20199;-79
2021/12/14 05:49:04;;;;;;;123.07;115.57;;;9.00;99.90;;;;;;5012631;28;20234;-78
2021/12/14 05:51:31;;;;;;;121.63;114.07;;;9.00;99.90;;;;;;5030547;28;20670;-77
2021/12/14 05:53:58;;;;;;;119.77;112.07;;;9.00;99.90;;;;;;5044453;28;20195;-78
2021/12/14 05:56:28;;;;;;;122.00;114.10;;;9.00;99.90;;;;;;5027767;28;20218;-78
2021/12/14 05:58:55;;;;;;;119.03;111.33;;;9.00;99.90;;;;;;5021236;28;20194;-79
2021/12/14 06:01:24;;;;;;;118.40;110.77;;;9.00;99.90;;;;;;5027900;28;20737;-79
2021/12/14 06:03:53;;;;;;;121.70;113.70;;;8.90;99.90;;;;;;5026526;28;20302;-79
2021/12/14 06:06:29;;;;;;;121.33;113.63;;;9.00;99.90;;;;;;5028900;28;20205;-79
2021/12/14 06:09:14;;;;;;;119.67;111.87;;;8.90;99.90;;;;;;5028632;28;20241;-77
2021/12/14 06:11:41;;;;;;;121.97;114.33;;;9.00;99.90;;;;;;5029712;28;20175;-79
2021/12/14 06:14:19;;;;;;;119.77;112.20;;;9.00;99.90;;;;;;5027332;28;20279;-80
2021/12/14 06:16:47;;;;;;;119.40;111.90;;;9.00;99.90;;;;;;5026700;28;20274;-79
2021/12/14 06:19:12;;;;;;;121.13;113.70;;;9.00;99.90;;;;;;5026898;28;20207;-78
2021/12/14 06:21:39;;;;;;;121.27;113.70;;;9.00;99.90;;;;;;5027795;28;20590;-78
2021/12/14 06:24:07;;;;;;;119.50;111.77;;;9.00;99.90;;;;;;5010646;28;20190;-77
2021/12/14 06:26:39;;;;;;;120.67;112.93;;;9.00;99.90;;;;;;5028432;28;20635;-78
2021/12/14 06:29:11;;;;;;;122.60;114.67;;;9.00;99.90;;;;;;5021683;28;20221;-79
2021/12/14 06:31:40;;;;;;;121.27;113.33;;;9.00;99.90;;;;;;5011372;28;20262;-79
2021/12/14 06:34:14;;;;;;;120.13;112.70;;;9.00;99.90;;;;;;5028623;28;20199;-77
2021/12/14 06:36:48;;;;;;;118.73;110.67;;;9.00;99.90;;;;;;5024126;28;20182;-78
2021/12/14 06:39:15;;;;;;;120.07;111.97;;;9.00;99.90;;;;;;5026707;28;20772;-78
2021/12/14 06:41:40;;;;;;;120.27;112.40;;;9.00;99.90;;;;;;5022473;28;20211;-80
2021/12/14 06:44:06;;;;;;;120.27;112.50;;;9.10;99.90;;;;;;5012500;28;20279;-78
2021/12/14 06:46:38;;;;;;;117.03;109.30;;;9.10;99.90;;;;;;5029654;28;20206;-79
2021/12/14 06:49:11;;;;;;;117.40;109.50;;;9.10;99.90;;;;;;5034079;28;20252;-79
2021/12/14 06:51:39;;;;;;;120.00;111.90;;;9.00;99.90;;;;;;5027154;28;20673;-79
2021/12/14 06:54:08;;;;;;;119.23;111.67;;;9.00;99.90;;;;;;5032436;28;20197;-80
2021/12/14 06:56:35;;;;;;;117.67;110.07;;;9.10;99.90;;;;;;5027208;28;20194;-79
2021/12/14 06:59:11;;;;;;;117.93;109.73;;;9.00;99.90;;;;;;5026518;28;20179;-78
2021/12/14 07:01:52;;;;;;;117.90;110.20;;;9.10;99.90;;;;;;5042711;28;20193;-79
2021/12/14 07:04:23;;;;;;;117.27;109.47;;;9.00;99.90;;;;;;5009629;28;20342;-77
2021/12/14 07:06:54;;;;;;;116.23;108.53;;;9.00;99.90;;;;;;5041638;28;20258;-78
2021/12/14 07:09:34;;;;;;;117.43;109.73;;;9.00;99.90;;;;;;5027254;28;20227;-79
2021/12/14 07:12:36;;;;;;;117.77;109.13;;;9.00;99.90;;;;;;5027250;28;20193;-78
2021/12/14 07:15:25;;;;;;;118.00;110.27;;;9.00;99.90;;;;;;5020268;28;20205;-77
2021/12/14 07:18:00;;;;;;;117.60;109.90;;;9.00;99.90;;;;;;5026995;28;20187;-79
2021/12/14 07:20:36;;;;;;;119.50;111.67;;;9.00;99.90;;;;;;5026877;28;20717;-78
2021/12/14 07:23:04;;;;;;;118.80;110.80;;;9.00;99.90;;;;;;5026115;28;20218;-79
2021/12/14 07:25:40;;;;;;;121.53;112.37;;;9.00;99.90;;;;;;5015990;28;20520;-78
2021/12/14 07:28:10;;;;;;;120.27;111.70;;;9.00;99.90;;;;;;5028165;28;20199;-78
2021/12/14 07:30:46;;;;;;;119.00;110.93;;;9.00;99.90;;;;;;5026517;28;20183;-79
2021/12/14 07:33:20;;;;;;;120.67;111.97;;;9.00;99.90;;;;;;5025986;28;20194;-79
2021/12/14 07:35:57;;;;;;;119.03;111.23;;;9.00;99.90;;;;;;5025943;28;20513;-77
2021/12/14 07:38:31;;;;;;;119.93;111.70;;;9.00;99.90;;;;;;5028276;28;20190;-78
2021/12/14 07:41:18;;;;;;;120.80;111.87;;;9.00;99.90;;;;;;5019000;28;20229;-79
2021/12/14 07:43:59;;;;;;;120.03;111.60;;;9.00;99.90;;;;;;5027698;28;20194;-78
2021/12/14 07:46:44;;;;;;;124.43;114.93;;;9.10;99.90;;;;;;5028090;28;20549;-79
2021/12/14 07:49:27;;;;;;;120.83;112.53;;;9.10;99.90;;;;;;5037202;28;20238;-78
2021/12/14 07:51:59;;;;;;;124.87;115.83;;;9.00;99.90;;;;;;5028349;28;20197;-78
2021/12/14 07:54:29;;;;;;;123.03;114.63;;;9.00;99.90;;;;;;5047095;28;20252;-79
2021/12/14 07:57:05;;;;;;;122.83;114.43;;;9.00;99.90;;;;;;5021811;28;20201;-79
2021/12/14 07:59:40;;;;;;;122.67;114.00;;;9.00;99.90;;;;;;5044358;28;20544;-79
2021/12/14 08:02:12;;;;;;;121.30;112.27;;;9.10;99.90;;;;;;5028062;28;20606;-77
2021/12/14 08:04:41;;;;;;;123.33;114.70;;;9.10;99.90;;;;;;5029712;28;20797;-78
2021/12/14 08:07:07;;;;;;;124.43;115.73;;;9.20;99.90;;;;;;5051476;28;20612;-79
2021/12/14 08:09:50;;;;;;;126.07;117.07;;;9.20;99.90;;;;;;5032302;28;20686;-80
2021/12/14 08:12:31;;;;;;;128.37;118.73;;;9.10;99.90;;;;;;5035109;28;20661;-79
2021/12/14 08:15:32;;;;;;;123.33;114.50;;;9.10;99.90;;;;;;5051271;28;20221;-79
2021/12/14 08:18:13;;;;;;;124.20;115.97;;;9.10;99.90;;;;;;5050581;28;20522;-78
2021/12/14 08:21:11;;;;;;;129.00;119.67;;;9.10;99.90;;;;;;5034418;28;20228;-80
2021/12/14 08:23:50;;;;;;;128.47;118.67;;;9.10;99.90;;;;;;5032562;28;20723;-79
2021/12/14 08:26:23;;;;;;;129.87;120.60;;;9.10;99.90;;;;;;5033099;28;20840;-78
2021/12/14 08:28:52;;;;;;;130.13;120.70;;;9.10;99.90;;;;;;5016600;28;20424;-80
2021/12/14 08:31:19;;;;;;;131.47;122.27;;;9.20;99.90;;;;;;5033517;28;20225;-79
2021/12/14 08:33:53;;;;;;;132.17;122.57;;;9.20;99.90;;;;;;5017232;28;20264;-78
2021/12/14 08:36:19;;;;;;;133.27;123.53;;;9.20;99.90;;;;;;5026813;28;20666;-80
2021/12/14 08:38:45;;;;;;;135.43;125.20;;;9.20;99.90;;;;;;5016986;28;20201;-79
2021/12/14 08:41:21;;;;;;;136.50;123.40;;;9.20;99.90;;;;;;5016948;28;20194;-81
2021/12/14 08:43:50;;;;;;;137.23;126.47;;;9.20;99.90;;;;;;5033777;28;20797;-81
2021/12/14 08:46:27;;;;;;;137.03;126.80;;;9.20;99.90;;;;;;5049923;28;20182;-80
2021/12/14 08:48:59;;;;;;;140.70;130.70;;;9.30;99.90;;;;;;5044704;28;20234;-80
2021/12/14 08:51:34;;;;;;;141.83;131.67;;;9.30;99.90;;;;;;5031496;28;20190;-80
2021/12/14 08:54:12;;;;;;;142.50;132.27;;;9.40;99.90;;;;;;5039064;28;20667;-79
2021/12/14 08:57:18;;;;;;;143.50;132.90;;;9.30;99.90;;;;;;5030341;28;20498;-80
2021/12/14 08:59:48;;;;;;;143.20;132.53;;;9.30;99.90;;;;;;5028913;28;20203;-79
2021/12/14 09:02:16;;;;;;;143.90;133.27;;;9.30;99.90;;;;;;5029733;28;20871;-80
2021/12/14 09:04:56;;;;;;;142.50;132.03;;;9.30;99.90;;;;;;5015096;28;20282;-80
2021/12/14 09:07:26;;;;;;;142.90;132.20;;;9.30;99.90;;;;;;5013780;28;20670;-79
2021/12/14 09:09:53;;;;;;;142.70;132.53;;;9.30;99.90;;;;;;5030992;28;20257;-79
2021/12/14 09:12:24;;;;;;;144.00;133.67;;;9.30;99.90;;;;;;5031374;28;20615;-79
2021/12/14 09:14:51;;;;;;;140.97;130.33;;;9.30;99.90;;;;;;5030403;28;20211;-78
2021/12/14 09:17:21;;;;;;;140.30;128.87;;;9.30;99.90;;;;;;5029179;28;20194;-79
2021/12/14 09:20:00;;;;;;;136.20;126.13;;;9.40;99.90;;;;;;5032865;28;20197;-79
2021/12/14 09:22:30;;;;;;;141.30;129.87;;;9.40;99.90;;;;;;5029990;28;20264;-80
2021/12/14 09:24:57;;;;;;;139.47;128.60;;;9.40;99.90;;;;;;5030692;28;20282;-79
2021/12/14 09:27:27;;;;;;;136.33;126.63;;;9.50;99.90;;;;;;5030245;28;20187;-79
2021/12/14 09:29:55;;;;;;;136.00;125.90;;;9.50;99.90;;;;;;5030424;28;20207;-79
2021/12/14 09:32:27;;;;;;;136.90;126.53;;;9.50;99.90;;;;;;5029092;28;20751;-81
2021/12/14 09:34:54;;;;;;;134.43;124.73;;;9.50;99.90;;;;;;4997496;28;20213;-81
2021/12/14 09:37:21;;;;;;;136.27;125.90;;;9.50;99.90;;;;;;5029577;28;20187;-80
2021/12/14 09:39:50;;;;;;;137.50;126.90;;;9.50;99.90;;;;;;5030978;28;20190;-79
2021/12/14 09:42:27;;;;;;;133.37;123.90;;;9.50;99.90;;;;;;5028724;28;20751;-81
2021/12/14 09:44:56;;;;;;;135.10;125.27;;;9.50;99.90;;;;;;5027184;28;20187;-81
2021/12/14 09:47:26;;;;;;;135.27;125.90;;;9.60;99.90;;;;;;5030684;28;20346;-80
2021/12/14 09:49:53;;;;;;;132.67;123.07;;;9.60;99.90;;;;;;5046200;28;20226;-80
2021/12/14 09:52:26;;;;;;;133.03;123.43;;;9.60;99.90;;;;;;5014388;28;20173;-81
2021/12/14 09:54:54;;;;;;;134.67;124.80;;;9.60;99.90;;;;;;5031979;28;20659;-80
2021/12/14 09:57:25;;;;;;;134.83;124.37;;;9.60;99.90;;;;;;5032815;28;20216;-80
2021/12/14 09:59:53;;;;;;;132.10;122.43;;;9.70;99.90;;;;;;5032642;28;20240;-80
2021/12/14 10:02:33;;;;;;;130.33;120.50;;;9.60;99.90;;;;;;5030977;28;20213;-80
2021/12/14 10:05:12;;;;;;;130.23;120.23;;;9.70;99.90;;;;;;5048726;28;20194;-79
2021/12/14 10:07:38;;;;;;;130.90;121.20;;;9.70;99.90;;;;;;5049772;28;20256;-79
2021/12/14 10:10:07;;;;;;;132.60;122.57;;;9.70;99.90;;;;;;5033254;28;20659;-80
2021/12/14 10:12:49;;;;;;;131.07;121.37;;;9.70;99.90;;;;;;5014186;28;20206;-78
2021/12/14 10:15:23;;;;;;;130.60;120.90;;;9.70;99.90;;;;;;5049842;28;20177;-79
2021/12/14 10:17:50;;;;;;;131.03;121.37;;;9.70;99.90;;;;;;5049812;28;20182;-79
2021/12/14 10:20:23;;;;;;;130.17;120.20;;;9.70;99.90;;;;;;5047561;28;20202;-79
2021/12/14 10:22:51;;;;;;;128.40;119.17;;;9.70;99.90;;;;;;5032157;28;20190;-80
2021/12/14 10:25:21;;;;;;;129.43;119.77;;;9.80;99.90;;;;;;5014270;28;20210;-79
2021/12/14 10:27:47;;;;;;;131.63;121.40;;;9.80;99.90;;;;;;5027369;28;20195;-80
2021/12/14 10:30:20;;;;;;;129.17;119.37;;;9.80;99.90;;;;;;5030810;28;20191;-80
2021/12/14 10:32:46;;;;;;;128.20;118.80;;;9.80;99.90;;;;;;5030224;28;20220;-79
2021/12/14 10:35:22;;;;;;;129.80;120.10;;;9.80;99.90;;;;;;5030482;28;20190;-80
2021/12/14 10:37:53;;;;;;;129.57;120.33;;;9.80;99.90;;;;;;5048612;28;20166;-80
2021/12/14 10:43:18;;;;;;;131.23;121.73;;;9.80;99.90;;;;;;5048891;28;20185;-79
2021/12/14 10:45:57;;;;;;;130.87;121.00;;;9.80;99.90;;;;;;5008690;28;20186;-80
2021/12/14 10:48:30;;;;;;;131.70;121.60;;;9.80;99.90;;;;;;5024819;28;20801;-81
2021/12/14 10:50:58;;;;;;;131.37;121.70;;;9.80;99.90;;;;;;5031397;28;20193;-78
2021/12/14 10:53:25;;;;;;;133.50;123.10;;;9.80;99.90;;;;;;5039990;28;20182;-81
2021/12/14 10:55:59;;;;;;;133.43;123.40;;;9.80;99.90;;;;;;5013241;28;20300;-81
2021/12/14 10:58:28;;;;;;;134.33;124.33;;;9.80;99.90;;;;;;5046018;28;20209;-81
2021/12/14 11:01:04;;;;;;;139.00;128.03;;;9.80;99.90;;;;;;5029757;28;20194;-81
2021/12/14 11:03:35;;;;;;;141.50;130.80;;;9.80;99.90;;;;;;5024241;28;20186;-80
2021/12/14 11:06:05;;;;;;;156.57;144.07;;;9.80;99.90;;;;;;5027754;28;20182;-80
2021/12/14 11:11:01;;;;;;;169.87;157.47;;;9.80;99.90;;;;;;5049624;28;20221;-80
2021/12/14 11:13:35;;;;;;;177.57;163.87;;;9.70;99.90;;;;;;5029774;28;20563;-81
2021/12/14 11:16:01;;;;;;;182.23;168.73;;;9.70;99.90;;;;;;5040921;28;20185;-80
2021/12/14 11:18:27;;;;;;;196.27;182.60;;;9.70;99.90;;;;;;5028457;28;20194;-80
2021/12/14 11:21:07;;;;;;;210.43;195.23;;;9.70;99.90;;;;;;5030372;28;20566;-80
2021/12/14 11:23:43;;;;;;;224.10;208.90;;;9.70;99.90;;;;;;5030659;28;20667;-80
2021/12/14 11:26:20;;;;;;;221.53;205.57;;;9.70;99.90;;;;;;5040394;28;20197;-80
2021/12/14 11:28:54;;;;;;;233.10;216.33;;;9.70;99.90;;;;;;5021792;28;20228;-80
2021/12/14 11:31:27;;;;;;;251.90;234.53;;;9.70;99.90;;;;;;5048650;28;20194;-80
2021/12/14 11:34:08;;;;;;;262.57;244.20;;;9.70;99.90;;;;;;5048559;28;20214;-80
2021/12/14 11:36:41;;;;;;;270.90;252.10;;;9.70;99.90;;;;;;5048092;28;20612;-80
2021/12/14 11:39:23;;;;;;;282.57;263.53;;;9.70;99.90;;;;;;5050561;28;20186;-78
2021/12/14 11:41:56;;;;;;;285.90;266.47;;;9.70;99.90;;;;;;5031469;28;20178;-79
2021/12/14 11:44:35;;;;;;;287.57;268.23;;;9.70;99.90;;;;;;5024057;28;20186;-80
2021/12/14 11:47:21;;;;;;;291.87;272.20;;;9.60;99.90;;;;;;5029245;28;20193;-80
2021/12/14 11:50:00;;;;;;;300.97;279.77;;;9.70;99.90;;;;;;5025564;28;20245;-79
2021/12/14 11:52:35;;;;;;;307.43;285.53;;;9.70;99.90;;;;;;5024477;28;20278;-80
2021/12/14 11:55:14;;;;;;;310.33;288.47;;;9.70;99.90;;;;;;5049233;28;20209;-80
2021/12/14 11:57:39;;;;;;;348.23;323.87;;;9.70;99.90;;;;;;5015434;28;20280;-80
2021/12/14 12:00:10;;;;;;;367.63;341.77;;;9.70;99.90;;;;;;5014897;28;20740;-80
2021/12/14 12:02:36;;;;;;;447.03;414.50;;;9.70;99.90;;;;;;5038429;28;20182;-81
2021/12/14 12:05:23;;;;;;;549.20;508.87;;;9.70;99.90;;;;;;5012913;28;20630;-81
2021/12/14 12:10:47;;;;;;;599.97;554.47;;;9.70;99.90;;;;;;5034324;28;20209;-79
2021/12/14 12:13:12;;;;;;;594.40;549.90;;;9.70;99.90;;;;;;5028450;28;20651;-80
2021/12/14 12:15:41;;;;;;;596.00;551.07;;;9.70;99.90;;;;;;5030621;28;20286;-80
2021/12/14 12:18:08;;;;;;;567.17;524.27;;;9.70;99.90;;;;;;5030702;28;20204;-79
2021/12/14 12:20:41;;;;;;;570.73;527.90;;;9.70;99.90;;;;;;5024840;28;20194;-79
2021/12/14 12:23:09;;;;;;;590.83;547.33;;;9.80;99.90;;;;;;5048445;28;20550;-80
2021/12/14 12:25:39;;;;;;;600.20;554.67;;;9.80;99.90;;;;;;5049128;28;20191;-80
2021/12/14 12:28:09;;;;;;;647.13;598.20;;;9.80;99.90;;;;;;5048681;28;20225;-79
2021/12/14 12:30:43;;;;;;;657.30;607.33;;;9.70;99.90;;;;;;5029351;28;20229;-80
2021/12/14 12:33:11;;;;;;;694.47;641.97;;;9.80;99.90;;;;;;5046011;28;20618;-80
2021/12/14 12:36:02;;;;;;;697.40;644.07;;;9.80;99.90;;;;;;5048574;28;20209;-79
2021/12/14 12:38:41;;;;;;;665.13;613.90;;;9.80;99.90;;;;;;5029863;28;20628;-80
2021/12/14 12:41:25;;;;;;;757.00;699.40;;;9.80;99.90;;;;;;5020954;28;20237;-79
2021/12/14 12:43:57;;;;;;;740.23;683.70;;;9.80;99.90;;;;;;5029800;28;20254;-79
2021/12/14 12:46:31;;;;;;;664.20;612.10;;;9.80;99.90;;;;;;5047357;28;20178;-80
2021/12/14 12:49:06;;;;;;;671.73;619.70;;;9.80;99.90;;;;;;5039349;28;20302;-79
2021/12/14 12:51:40;;;;;;;676.43;624.63;;;9.90;99.90;;;;;;5030903;28;20178;-79
2021/12/14 12:54:32;;;;;;;672.57;620.87;;;9.90;99.90;;;;;;5050565;28;20178;-80
2021/12/14 12:57:35;;;;;;;656.23;605.37;;;10.00;99.90;;;;;;5051810;28;20213;-80
2021/12/14 13:00:35;;;;;;;628.00;578.90;;;10.10;99.90;;;;;;5051321;28;20927;-80
2021/12/14 13:03:13;;;;;;;583.97;537.83;;;10.10;99.90;;;;;;5051666;28;20264;-80
2021/12/14 13:05:45;;;;;;;565.77;521.37;;;10.20;99.90;;;;;;5051415;28;20769;-79
2021/12/14 13:08:19;;;;;;;550.97;508.40;;;10.20;99.90;;;;;;5032677;28;20222;-79
2021/12/14 13:10:53;;;;;;;550.77;508.07;;;10.20;99.90;;;;;;5026409;28;20186;-80
2021/12/14 13:13:40;;;;;;;534.13;493.03;;;10.20;99.90;;;;;;5033609;28;20174;-80
2021/12/14 13:16:09;;;;;;;543.77;502.57;;;10.30;99.90;;;;;;5032051;28;20182;-79
2021/12/14 13:18:43;;;;;;;521.90;481.87;;;10.30;99.90;;;;;;5032392;28;20186;-80